createdAt,value
2018-04-22T00:00:44.051Z,6.9
2018-04-22T00:01:33.842Z,6.9
2018-04-22T00:02:24.165Z,6.9
2018-04-22T00:03:14.257Z,6.9
2018-04-22T00:04:04.305Z,6.9
2018-04-22T00:04:54.196Z,6.8
2018-04-22T00:05:44.433Z,6.8
2018-04-22T00:06:34.497Z,6.8
2018-04-22T00:07:24.364Z,6.8
2018-04-22T00:08:14.635Z,6.8
2018-04-22T00:09:04.404Z,6.8
2018-04-22T00:09:54.761Z,6.7
2018-04-22T00:10:44.809Z,6.7
2018-04-22T00:11:34.883Z,6.7
2018-04-22T00:12:24.955Z,6.6
2018-04-22T00:13:14.739Z,6.6
2018-04-22T00:14:05.061Z,6.6
2018-04-22T00:14:55.116Z,6.6
2018-04-22T00:15:44.951Z,6.6
2018-04-22T00:16:35.273Z,6.6
2018-04-22T00:17:24.768Z,6.5
2018-04-22T00:18:15.370Z,6.5
2018-04-22T00:19:05.446Z,6.5
2018-04-22T00:19:55.504Z,6.4
2018-04-22T00:20:45.285Z,6.4
2018-04-22T00:21:35.641Z,6.4
2018-04-22T00:22:25.430Z,6.4
2018-04-22T00:23:15.748Z,6.4
2018-04-22T00:24:05.816Z,6.4
2018-04-22T00:24:55.887Z,6.4
2018-04-22T00:25:45.668Z,6.4
2018-04-22T00:26:36.013Z,6.3
2018-04-22T00:27:26.091Z,6.3
2018-04-22T00:28:16.153Z,6.3
2018-04-22T00:29:05.930Z,6.3
2018-04-22T00:29:56.285Z,6.3
2018-04-22T00:30:46.371Z,6.3
2018-04-22T00:31:36.119Z,6.3
2018-04-22T00:32:26.460Z,6.3
2018-04-22T00:33:16.524Z,6.3
2018-04-22T00:34:06.587Z,6.2
2018-04-22T00:34:56.419Z,6.2
2018-04-22T00:35:46.724Z,6.2
2018-04-22T00:36:36.793Z,6.1
2018-04-22T00:37:26.561Z,6.1
2018-04-22T00:38:16.904Z,6.1
2018-04-22T00:39:06.965Z,6.1
2018-04-22T00:39:57.046Z,6.1
2018-04-22T00:40:47.116Z,6.1
2018-04-22T00:41:36.889Z,6.1
2018-04-22T00:42:26.957Z,6
2018-04-22T00:43:17.018Z,6
2018-04-22T00:44:07.083Z,6
2018-04-22T00:44:57.455Z,6
2018-04-22T00:45:47.254Z,6
2018-04-22T00:46:37.545Z,5.9
2018-04-22T00:47:27.309Z,5.9
2018-04-22T00:48:17.671Z,5.9
2018-04-22T00:49:07.736Z,5.9
2018-04-22T00:49:57.793Z,5.9
2018-04-22T00:50:47.866Z,5.9
2018-04-22T00:51:37.919Z,5.9
2018-04-22T00:52:28.039Z,5.9
2018-04-22T00:53:18.041Z,5.8
2018-04-22T00:54:07.840Z,5.8
2018-04-22T00:54:58.177Z,5.8
2018-04-22T00:55:47.961Z,5.8
2018-04-22T00:56:38.304Z,5.8
2018-04-22T00:57:28.380Z,5.7
2018-04-22T00:58:18.426Z,5.7
2018-04-22T00:59:08.215Z,5.7
2018-04-22T00:59:58.582Z,5.7
2018-04-22T01:00:48.615Z,5.7
2018-04-22T01:01:38.680Z,5.7
2018-04-22T01:02:28.463Z,5.7
2018-04-22T01:03:18.803Z,5.7
2018-04-22T01:04:08.925Z,5.6
2018-04-22T01:04:58.659Z,5.6
2018-04-22T01:05:48.725Z,5.6
2018-04-22T01:06:39.074Z,5.6
2018-04-22T01:07:28.845Z,5.6
2018-04-22T01:08:19.193Z,5.6
2018-04-22T01:09:09.265Z,5.6
2018-04-22T01:09:59.336Z,5.6
2018-04-22T01:10:49.410Z,5.6
2018-04-22T01:11:39.445Z,5.6
2018-04-22T01:12:29.518Z,5.6
2018-04-22T01:13:19.562Z,5.6
2018-04-22T01:14:09.630Z,5.6
2018-04-22T01:14:59.703Z,5.6
2018-04-22T01:15:49.757Z,5.6
2018-04-22T01:16:39.837Z,5.6
2018-04-22T01:17:29.614Z,5.6
2018-04-22T01:18:19.951Z,5.6
2018-04-22T01:19:09.736Z,5.6
2018-04-22T01:20:00.081Z,5.6
2018-04-22T01:20:50.152Z,5.6
2018-04-22T01:21:40.225Z,5.6
2018-04-22T01:22:30.275Z,5.6
2018-04-22T01:23:20.064Z,5.6
2018-04-22T01:24:10.115Z,5.6
2018-04-22T01:25:00.470Z,5.6
2018-04-22T01:25:50.255Z,5.6
2018-04-22T01:26:40.343Z,5.6
2018-04-22T01:27:30.362Z,5.6
2018-04-22T01:28:20.718Z,5.7
2018-04-22T01:29:10.778Z,5.7
2018-04-22T01:30:00.579Z,5.7
2018-04-22T01:30:50.900Z,5.8
2018-04-22T01:31:40.978Z,5.8
2018-04-22T01:32:30.757Z,5.8
2018-04-22T01:33:20.851Z,5.8
2018-04-22T01:34:11.158Z,5.8
2018-04-22T01:35:01.217Z,5.8
2018-04-22T01:35:51.287Z,5.8
2018-04-22T01:36:41.383Z,5.7
2018-04-22T01:37:31.129Z,5.7
2018-04-22T01:38:21.203Z,5.7
2018-04-22T01:39:11.529Z,5.6
2018-04-22T01:40:01.623Z,5.6
2018-04-22T01:40:51.671Z,5.6
2018-04-22T01:41:41.733Z,5.6
2018-04-22T01:42:31.528Z,5.6
2018-04-22T01:43:21.856Z,5.6
2018-04-22T01:44:11.635Z,5.6
2018-04-22T01:45:01.705Z,5.6
2018-04-22T01:45:52.039Z,5.5
2018-04-22T01:46:41.823Z,5.5
2018-04-22T01:47:32.178Z,5.5
2018-04-22T01:48:22.238Z,5.5
2018-04-22T01:49:12.305Z,5.4
2018-04-22T01:50:02.388Z,5.4
2018-04-22T01:50:52.418Z,5.4
2018-04-22T01:51:42.218Z,5.4
2018-04-22T01:52:32.274Z,5.4
2018-04-22T01:53:22.619Z,5.4
2018-04-22T01:54:12.404Z,5.4
2018-04-22T01:55:02.472Z,5.3
2018-04-22T01:55:52.813Z,5.3
2018-04-22T01:56:42.875Z,5.3
2018-04-22T01:57:32.950Z,5.3
2018-04-22T01:58:22.731Z,5.3
2018-04-22T01:59:12.512Z,5.3
2018-04-22T02:00:03.160Z,5.3
2018-04-22T02:00:53.201Z,5.3
2018-04-22T02:01:43.250Z,5.3
2018-04-22T02:02:33.321Z,5.3
2018-04-22T02:03:23.387Z,5.3
2018-04-22T02:04:13.452Z,5.3
2018-04-22T02:05:03.532Z,5.3
2018-04-22T02:05:53.314Z,5.3
2018-04-22T02:06:43.629Z,5.3
2018-04-22T02:07:33.699Z,5.3
2018-04-22T02:08:23.761Z,5.3
2018-04-22T02:09:13.554Z,5.3
2018-04-22T02:10:03.326Z,5.3
2018-04-22T02:10:53.981Z,5.3
2018-04-22T02:11:44.011Z,5.3
2018-04-22T02:12:33.817Z,5.2
2018-04-22T02:13:24.138Z,5.3
2018-04-22T02:14:14.223Z,5.2
2018-04-22T02:15:04.287Z,5.2
2018-04-22T02:15:54.330Z,5.2
2018-04-22T02:16:44.392Z,5.1
2018-04-22T02:17:34.465Z,5.1
2018-04-22T02:18:24.524Z,5.1
2018-04-22T02:19:14.579Z,5.1
2018-04-22T02:20:04.647Z,5.1
2018-04-22T02:20:54.699Z,5.1
2018-04-22T02:21:44.516Z,5.1
2018-04-22T02:22:34.829Z,5.1
2018-04-22T02:23:24.889Z,5.1
2018-04-22T02:24:14.953Z,5.1
2018-04-22T02:25:04.738Z,5.1
2018-04-22T02:25:55.095Z,5
2018-04-22T02:26:45.205Z,5
2018-04-22T02:27:35.221Z,5
2018-04-22T02:28:24.730Z,5
2018-04-22T02:29:15.062Z,5
2018-04-22T02:30:05.437Z,5
2018-04-22T02:30:55.476Z,5
2018-04-22T02:31:45.535Z,4.9
2018-04-22T02:32:35.653Z,4.9
2018-04-22T02:33:25.657Z,4.9
2018-04-22T02:34:15.445Z,4.9
2018-04-22T02:35:05.805Z,4.9
2018-04-22T02:35:55.869Z,4.9
2018-04-22T02:36:45.628Z,4.9
2018-04-22T02:37:35.712Z,4.9
2018-04-22T02:38:26.086Z,4.9
2018-04-22T02:39:16.119Z,4.9
2018-04-22T02:40:06.162Z,4.8
2018-04-22T02:40:56.215Z,4.8
2018-04-22T02:41:46.312Z,4.8
2018-04-22T02:42:36.359Z,4.8
2018-04-22T02:43:26.430Z,4.8
2018-04-22T02:44:16.482Z,4.8
2018-04-22T02:45:06.559Z,4.8
2018-04-22T02:45:56.644Z,4.8
2018-04-22T02:46:46.664Z,4.8
2018-04-22T02:47:36.166Z,4.8
2018-04-22T02:48:26.819Z,4.8
2018-04-22T02:49:16.863Z,4.8
2018-04-22T02:50:06.951Z,4.8
2018-04-22T02:50:57.032Z,4.7
2018-04-22T02:51:47.045Z,4.7
2018-04-22T02:52:36.832Z,4.7
2018-04-22T02:53:26.633Z,4.7
2018-04-22T02:54:16.967Z,4.7
2018-04-22T02:55:07.317Z,4.6
2018-04-22T02:55:57.383Z,4.6
2018-04-22T02:56:47.447Z,4.6
2018-04-22T02:57:37.218Z,4.6
2018-04-22T02:58:27.562Z,4.6
2018-04-22T02:59:17.618Z,4.6
2018-04-22T03:00:07.689Z,4.6
2018-04-22T03:00:57.759Z,4.6
2018-04-22T03:01:47.851Z,4.6
2018-04-22T03:02:37.604Z,4.6
2018-04-22T03:03:27.660Z,4.6
2018-04-22T03:04:17.999Z,4.6
2018-04-22T03:05:08.057Z,4.6
2018-04-22T03:05:57.855Z,4.6
2018-04-22T03:06:48.209Z,4.6
2018-04-22T03:07:37.994Z,4.6
2018-04-22T03:08:28.311Z,4.6
2018-04-22T03:09:18.096Z,4.6
2018-04-22T03:10:08.442Z,4.6
2018-04-22T03:10:57.950Z,4.6
2018-04-22T03:11:48.614Z,4.6
2018-04-22T03:12:38.652Z,4.6
2018-04-22T03:13:28.694Z,4.6
2018-04-22T03:14:18.482Z,4.5
2018-04-22T03:15:08.820Z,4.5
2018-04-22T03:15:58.871Z,4.5
2018-04-22T03:16:48.680Z,4.5
2018-04-22T03:17:39.036Z,4.5
2018-04-22T03:18:29.085Z,4.5
2018-04-22T03:19:19.144Z,4.4
2018-04-22T03:20:09.204Z,4.4
2018-04-22T03:20:58.689Z,4.4
2018-04-22T03:21:49.054Z,4.4
2018-04-22T03:22:39.117Z,4.4
2018-04-22T03:23:29.164Z,4.4
2018-04-22T03:24:19.528Z,4.4
2018-04-22T03:25:09.501Z,4.4
2018-04-22T03:25:59.642Z,4.4
2018-04-22T03:26:49.705Z,4.4
2018-04-22T03:27:39.496Z,4.4
2018-04-22T03:28:29.566Z,4.4
2018-04-22T03:29:19.625Z,4.4
2018-04-22T03:30:09.968Z,4.3
2018-04-22T03:31:00.052Z,4.3
2018-04-22T03:31:50.106Z,4.3
2018-04-22T03:32:40.157Z,4.3
2018-04-22T03:33:30.219Z,4.3
2018-04-22T03:34:19.986Z,4.3
2018-04-22T03:35:10.337Z,4.3
2018-04-22T03:36:00.426Z,4.3
2018-04-22T03:36:50.497Z,4.2
2018-04-22T03:37:40.545Z,4.2
2018-04-22T03:38:30.590Z,4.2
2018-04-22T03:39:20.640Z,4.2
2018-04-22T03:40:10.720Z,4.2
2018-04-22T03:41:00.807Z,4.2
2018-04-22T03:41:50.555Z,4.2
2018-04-22T03:42:40.635Z,4.1
2018-04-22T03:43:30.983Z,4.1
2018-04-22T03:44:21.042Z,4.1
2018-04-22T03:45:11.092Z,4.1
2018-04-22T03:46:01.182Z,4.1
2018-04-22T03:46:50.943Z,4.1
2018-04-22T03:47:40.996Z,4.1
2018-04-22T03:48:31.076Z,4.1
2018-04-22T03:49:21.408Z,4.1
2018-04-22T03:50:11.203Z,4.1
2018-04-22T03:51:01.536Z,4.1
2018-04-22T03:51:51.619Z,4.1
2018-04-22T03:52:41.683Z,4.1
2018-04-22T03:53:31.460Z,4.1
2018-04-22T03:54:21.794Z,4.1
2018-04-22T03:55:11.863Z,4.2
2018-04-22T03:56:01.944Z,4.1
2018-04-22T03:56:51.420Z,4.1
2018-04-22T03:57:42.044Z,4.2
2018-04-22T03:58:32.141Z,4.1
2018-04-22T03:59:21.901Z,4.2
2018-04-22T04:00:12.235Z,4.2
2018-04-22T04:01:02.551Z,4.2
2018-04-22T04:01:52.098Z,4.2
2018-04-22T04:02:42.426Z,4.2
2018-04-22T04:03:32.200Z,4.2
2018-04-22T04:04:22.583Z,4.2
2018-04-22T04:05:12.629Z,4.2
2018-04-22T04:06:02.691Z,4.2
2018-04-22T04:06:52.749Z,4.3
2018-04-22T04:07:42.801Z,4.3
2018-04-22T04:08:32.889Z,4.3
2018-04-22T04:09:22.657Z,4.3
2018-04-22T04:10:12.996Z,4.3
2018-04-22T04:11:03.076Z,4.3
2018-04-22T04:11:53.121Z,4.3
2018-04-22T04:12:43.197Z,4.4
2018-04-22T04:13:33.260Z,4.4
2018-04-22T04:14:23.299Z,4.4
2018-04-22T04:15:13.369Z,4.4
2018-04-22T04:16:03.163Z,4.5
2018-04-22T04:16:53.511Z,4.6
2018-04-22T04:17:43.581Z,4.6
2018-04-22T04:18:33.341Z,4.6
2018-04-22T04:19:23.796Z,4.6
2018-04-22T04:20:13.761Z,4.6
2018-04-22T04:21:03.827Z,4.7
2018-04-22T04:21:53.881Z,4.7
2018-04-22T04:22:43.941Z,4.7
2018-04-22T04:23:33.748Z,4.8
2018-04-22T04:24:24.073Z,4.8
2018-04-22T04:25:14.146Z,4.9
2018-04-22T04:26:04.202Z,4.9
2018-04-22T04:26:54.274Z,4.9
2018-04-22T04:27:44.375Z,4.9
2018-04-22T04:28:34.427Z,5
2018-04-22T04:29:24.467Z,5.1
2018-04-22T04:30:14.246Z,5.1
2018-04-22T04:31:04.575Z,5.1
2018-04-22T04:31:54.631Z,5.1
2018-04-22T04:32:44.702Z,5.2
2018-04-22T04:33:34.757Z,5.2
2018-04-22T04:34:24.848Z,5.3
2018-04-22T04:35:14.905Z,5.3
2018-04-22T04:36:05.061Z,5.3
2018-04-22T04:36:54.753Z,5.4
2018-04-22T04:37:44.805Z,5.4
2018-04-22T04:38:35.148Z,5.4
2018-04-22T04:39:25.224Z,5.5
2018-04-22T04:40:15.481Z,5.6
2018-04-22T04:41:05.079Z,5.6
2018-04-22T04:41:55.128Z,5.7
2018-04-22T04:42:45.470Z,5.8
2018-04-22T04:43:35.541Z,5.8
2018-04-22T04:44:25.595Z,5.9
2018-04-22T04:45:15.652Z,5.9
2018-04-22T04:46:05.718Z,6
2018-04-22T04:46:55.775Z,6.1
2018-04-22T04:47:45.842Z,6.2
2018-04-22T04:48:35.893Z,6.3
2018-04-22T04:49:25.703Z,6.4
2018-04-22T04:50:16.051Z,6.6
2018-04-22T04:51:06.114Z,6.8
2018-04-22T04:51:56.163Z,6.9
2018-04-22T04:52:46.232Z,7.1
2018-04-22T04:53:36.283Z,7.4
2018-04-22T04:54:26.728Z,7.6
2018-04-22T04:55:16.408Z,7.8
2018-04-22T04:56:06.484Z,8
2018-04-22T04:56:56.543Z,8.3
2018-04-22T04:57:46.594Z,8.4
2018-04-22T04:58:36.660Z,8.7
2018-04-22T04:59:26.728Z,8.9
2018-04-22T05:00:16.633Z,9.1
2018-04-22T05:01:06.845Z,9.3
2018-04-22T05:01:56.927Z,9.6
2018-04-22T05:02:47.009Z,9.8
2018-04-22T05:03:37.056Z,10
2018-04-22T05:04:27.123Z,10.3
2018-04-22T05:05:17.180Z,10.5
2018-04-22T05:06:07.222Z,10.8
2018-04-22T05:06:57.291Z,11
2018-04-22T05:07:47.076Z,11.3
2018-04-22T05:08:37.420Z,11.6
2018-04-22T05:09:27.478Z,11.8
2018-04-22T05:10:17.547Z,12.1
2018-04-22T05:11:07.617Z,12.4
2018-04-22T05:11:57.431Z,12.7
2018-04-22T05:12:47.463Z,12.9
2018-04-22T05:13:37.513Z,13.3
2018-04-22T05:14:27.598Z,13.6
2018-04-22T05:15:17.664Z,13.9
2018-04-22T05:16:07.428Z,14.2
2018-04-22T05:16:57.780Z,14.5
2018-04-22T05:17:48.127Z,14.8
2018-04-22T05:18:38.208Z,15.1
2018-04-22T05:19:28.272Z,15.4
2018-04-22T05:20:18.302Z,15.8
2018-04-22T05:21:08.396Z,16.1
2018-04-22T05:21:58.434Z,16.4
2018-04-22T05:22:48.499Z,16.8
2018-04-22T05:23:38.550Z,17.1
2018-04-22T05:24:28.630Z,17.4
2018-04-22T05:25:18.688Z,17.8
2018-04-22T05:26:08.475Z,18.1
2018-04-22T05:26:58.545Z,18.4
2018-04-22T05:27:48.869Z,18.8
2018-04-22T05:28:38.951Z,19.1
2018-04-22T05:29:29.002Z,19.4
2018-04-22T05:30:19.061Z,19.7
2018-04-22T05:31:09.248Z,20.1
2018-04-22T05:31:59.199Z,20.4
2018-04-22T05:32:49.247Z,20.8
2018-04-22T05:33:39.320Z,21.1
2018-04-22T05:34:29.388Z,21.4
2018-04-22T05:35:19.441Z,21.8
2018-04-22T05:36:09.520Z,22.1
2018-04-22T05:36:59.582Z,22.6
2018-04-22T05:37:49.645Z,23
2018-04-22T05:38:39.686Z,23.4
2018-04-22T05:39:29.488Z,23.8
2018-04-22T05:40:19.820Z,24.2
2018-04-22T05:41:09.606Z,24.6
2018-04-22T05:41:59.964Z,25
2018-04-22T05:42:50.026Z,25.4
2018-04-22T05:43:40.086Z,25.8
2018-04-22T05:44:29.593Z,26.2
2018-04-22T05:45:20.196Z,26.6
2018-04-22T05:46:10.260Z,26.9
2018-04-22T05:47:00.318Z,27.3
2018-04-22T05:47:50.405Z,27.6
2018-04-22T05:48:40.468Z,28
2018-04-22T05:49:30.526Z,28.4
2018-04-22T05:50:20.580Z,28.8
2018-04-22T05:51:10.377Z,29.1
2018-04-22T05:52:00.445Z,29.5
2018-04-22T05:52:50.510Z,29.9
2018-04-22T05:53:40.828Z,30.4
2018-04-22T05:54:30.901Z,30.8
2018-04-22T05:55:20.960Z,31.3
2018-04-22T05:56:11.022Z,31.7
2018-04-22T05:57:00.821Z,32.1
2018-04-22T05:57:51.162Z,32.5
2018-04-22T05:58:41.209Z,32.9
2018-04-22T05:59:31.276Z,33.3
2018-04-22T06:00:21.352Z,33.7
2018-04-22T06:01:10.844Z,34.1
2018-04-22T06:02:01.473Z,34.6
2018-04-22T06:02:51.829Z,35.1
2018-04-22T06:03:41.586Z,35.6
2018-04-22T06:04:31.371Z,36
2018-04-22T06:05:21.439Z,36.4
2018-04-22T06:06:11.519Z,36.9
2018-04-22T06:07:01.564Z,37.4
2018-04-22T06:07:51.931Z,37.9
2018-04-22T06:08:41.853Z,38.3
2018-04-22T06:09:31.758Z,38.8
2018-04-22T06:10:22.094Z,39.2
2018-04-22T06:11:12.177Z,39.6
2018-04-22T06:12:02.257Z,40.1
2018-04-22T06:12:52.284Z,40.4
2018-04-22T06:13:42.341Z,40.8
2018-04-22T06:14:32.146Z,41.2
2018-04-22T06:15:22.482Z,41.5
2018-04-22T06:16:12.550Z,41.9
2018-04-22T06:17:02.636Z,42.3
2018-04-22T06:17:52.096Z,42.7
2018-04-22T06:18:42.743Z,43.2
2018-04-22T06:19:32.507Z,43.6
2018-04-22T06:20:22.867Z,44.1
2018-04-22T06:21:12.926Z,44.5
2018-04-22T06:22:02.989Z,44.8
2018-04-22T06:22:53.170Z,45.1
2018-04-22T06:23:43.104Z,45.5
2018-04-22T06:24:33.191Z,45.9
2018-04-22T06:25:23.249Z,46.3
2018-04-22T06:26:13.285Z,46.8
2018-04-22T06:27:03.076Z,47.3
2018-04-22T06:27:53.136Z,47.8
2018-04-22T06:28:43.477Z,48.3
2018-04-22T06:29:33.557Z,48.8
2018-04-22T06:30:23.616Z,49.5
2018-04-22T06:31:13.681Z,51.1
2018-04-22T06:32:03.778Z,51.3
2018-04-22T06:33:43.604Z,48.3
2018-04-22T06:34:33.358Z,46.8
2018-04-22T06:35:23.993Z,45.9
2018-04-22T06:36:14.076Z,45.3
2018-04-22T06:37:03.848Z,44.9
2018-04-22T06:37:54.192Z,44.5
2018-04-22T06:38:44.248Z,44.4
2018-04-22T06:39:34.036Z,44.4
2018-04-22T06:40:24.391Z,44.8
2018-04-22T06:41:14.451Z,45.1
2018-04-22T06:42:04.218Z,45.6
2018-04-22T06:42:54.278Z,46.3
2018-04-22T06:43:44.638Z,46.9
2018-04-22T06:44:34.693Z,47.6
2018-04-22T06:45:24.755Z,48.3
2018-04-22T06:46:14.550Z,48.9
2018-04-22T06:47:04.595Z,85
2018-04-22T06:47:54.390Z,51.6
2018-04-22T06:48:45.035Z,52
2018-04-22T06:49:35.072Z,49.8
2018-04-22T06:50:25.137Z,48.1
2018-04-22T06:51:14.935Z,47
2018-04-22T06:52:05.000Z,46.3
2018-04-22T06:52:55.344Z,45.9
2018-04-22T06:53:45.115Z,45.7
2018-04-22T06:54:35.459Z,45.9
2018-04-22T06:55:25.541Z,46.6
2018-04-22T06:56:15.582Z,47.3
2018-04-22T06:57:05.649Z,48.2
2018-04-22T06:57:55.728Z,49
2018-04-22T06:58:45.909Z,49.8
2018-04-22T06:59:35.840Z,51.8
2018-04-22T07:00:25.924Z,53.1
2018-04-22T07:01:15.423Z,52
2018-04-22T07:02:05.749Z,50.8
2018-04-22T07:02:55.825Z,49.8
2018-04-22T07:03:46.171Z,48.6
2018-04-22T07:04:36.249Z,47.6
2018-04-22T07:05:26.122Z,46.9
2018-04-22T07:06:16.092Z,46.5
2018-04-22T07:07:06.434Z,46.3
2018-04-22T07:07:56.497Z,46.6
2018-04-22T07:08:46.562Z,47.4
2018-04-22T07:09:36.337Z,48.3
2018-04-22T07:10:26.109Z,49.3
2018-04-22T07:11:16.741Z,51.4
2018-04-22T07:12:06.808Z,53.4
2018-04-22T07:12:56.898Z,53.4
2018-04-22T07:13:46.947Z,52.9
2018-04-22T07:14:36.729Z,52.6
2018-04-22T07:15:27.090Z,51.6
2018-04-22T07:16:17.152Z,50.5
2018-04-22T07:17:07.221Z,49.6
2018-04-22T07:17:57.257Z,49.1
2018-04-22T07:18:47.326Z,48.9
2018-04-22T07:19:37.406Z,49.1
2018-04-22T07:20:27.462Z,49.5
2018-04-22T07:21:17.513Z,49.8
2018-04-22T07:22:07.582Z,50
2018-04-22T07:22:57.630Z,50.1
2018-04-22T07:23:47.690Z,50
2018-04-22T07:24:37.479Z,49.9
2018-04-22T07:25:27.823Z,49.8
2018-04-22T07:26:17.907Z,49.7
2018-04-22T07:27:07.680Z,49.7
2018-04-22T07:27:58.026Z,49.8
2018-04-22T07:28:48.094Z,49.8
2018-04-22T07:29:38.152Z,49.9
2018-04-22T07:30:27.949Z,50
2018-04-22T07:31:17.718Z,50.1
2018-04-22T07:32:08.123Z,50.1
2018-04-22T07:32:58.145Z,50.1
2018-04-22T07:33:48.209Z,50.1
2018-04-22T07:34:38.274Z,50.1
2018-04-22T07:35:28.120Z,50.1
2018-04-22T07:36:18.385Z,50.2
2018-04-22T07:37:08.447Z,50.3
2018-04-22T07:37:58.509Z,50.4
2018-04-22T07:38:48.587Z,50.4
2018-04-22T07:39:38.664Z,50.4
2018-04-22T07:40:28.754Z,50.5
2018-04-22T07:41:19.067Z,50.6
2018-04-22T07:42:09.117Z,50.7
2018-04-22T07:42:59.191Z,50.8
2018-04-22T07:43:48.965Z,50.9
2018-04-22T07:44:39.033Z,51
2018-04-22T07:45:29.385Z,51.1
2018-04-22T07:46:19.432Z,51.3
2018-04-22T07:47:09.501Z,51.4
2018-04-22T07:47:59.295Z,51.5
2018-04-22T07:48:49.367Z,51.6
2018-04-22T07:49:39.700Z,51.8
2018-04-22T07:50:29.753Z,51.8
2018-04-22T07:51:19.844Z,51.9
2018-04-22T07:52:09.903Z,52
2018-04-22T07:52:59.959Z,52.1
2018-04-22T07:53:49.729Z,52.2
2018-04-22T07:54:39.608Z,52.3
2018-04-22T07:55:30.155Z,52.4
2018-04-22T07:56:19.738Z,52.5
2018-04-22T07:57:10.262Z,52.6
2018-04-22T07:58:00.051Z,52.6
2018-04-22T07:58:50.125Z,52.6
2018-04-22T07:59:40.201Z,52.7
2018-04-22T08:00:30.242Z,52.8
2018-04-22T08:01:20.329Z,53
2018-04-22T08:02:10.377Z,53.1
2018-04-22T08:03:00.734Z,53.2
2018-04-22T08:03:50.519Z,53.4
2018-04-22T08:04:40.855Z,53.4
2018-04-22T08:05:30.629Z,53.6
2018-04-22T08:06:20.975Z,53.8
2018-04-22T08:07:11.061Z,53.9
2018-04-22T08:08:01.105Z,53.9
2018-04-22T08:08:51.191Z,54.1
2018-04-22T08:09:41.242Z,54.2
2018-04-22T08:10:31.307Z,54.3
2018-04-22T08:11:21.090Z,54.5
2018-04-22T08:12:11.431Z,54.7
2018-04-22T08:13:01.496Z,54.8
2018-04-22T08:13:51.556Z,55
2018-04-22T08:14:41.631Z,55.1
2018-04-22T08:15:31.418Z,55.3
2018-04-22T08:16:21.223Z,55.5
2018-04-22T08:17:11.820Z,55.7
2018-04-22T08:18:01.874Z,55.8
2018-04-22T08:18:51.945Z,55.9
2018-04-22T08:19:42.030Z,56
2018-04-22T08:20:31.532Z,56.1
2018-04-22T08:21:22.141Z,56.2
2018-04-22T08:22:12.226Z,56.3
2018-04-22T08:23:01.987Z,56.4
2018-04-22T08:23:52.067Z,56.5
2018-04-22T08:24:42.399Z,56.6
2018-04-22T08:25:32.487Z,56.7
2018-04-22T08:26:22.536Z,56.8
2018-04-22T08:27:12.623Z,56.9
2018-04-22T08:28:02.386Z,57
2018-04-22T08:28:52.749Z,57.1
2018-04-22T08:29:42.798Z,57.1
2018-04-22T08:30:32.868Z,57.2
2018-04-22T08:31:22.913Z,57.2
2018-04-22T08:32:12.692Z,57.3
2018-04-22T08:33:03.059Z,57.4
2018-04-22T08:33:53.218Z,57.4
2018-04-22T08:34:43.177Z,57.4
2018-04-22T08:35:32.950Z,57.5
2018-04-22T08:36:23.351Z,57.6
2018-04-22T08:37:13.090Z,57.7
2018-04-22T08:38:03.435Z,57.8
2018-04-22T08:38:53.487Z,57.9
2018-04-22T08:39:43.556Z,57.9
2018-04-22T08:40:33.361Z,58.1
2018-04-22T08:41:23.430Z,58.2
2018-04-22T08:42:13.757Z,58.4
2018-04-22T08:43:03.535Z,58.5
2018-04-22T08:44:43.962Z,58.7
2018-04-22T08:45:33.729Z,58.8
2018-04-22T08:46:23.799Z,58.9
2018-04-22T08:47:14.157Z,58.9
2018-04-22T08:48:04.250Z,58.9
2018-04-22T08:48:54.269Z,58.9
2018-04-22T08:49:44.345Z,58.9
2018-04-22T08:50:34.427Z,58.9
2018-04-22T08:51:24.194Z,59.1
2018-04-22T08:52:14.250Z,59.1
2018-04-22T08:53:04.596Z,59.2
2018-04-22T08:53:54.671Z,59.3
2018-04-22T08:54:44.458Z,59.4
2018-04-22T08:55:34.789Z,59.4
2018-04-22T08:56:24.597Z,59.4
2018-04-22T08:57:14.642Z,59.3
2018-04-22T08:58:04.989Z,59.3
2018-04-22T08:58:55.060Z,59.3
2018-04-22T08:59:45.102Z,59.3
2018-04-22T09:00:34.904Z,59.3
2018-04-22T09:01:25.259Z,59.3
2018-04-22T09:02:15.298Z,59.2
2018-04-22T09:03:05.390Z,59.1
2018-04-22T09:03:55.444Z,59.1
2018-04-22T09:04:45.217Z,59.2
2018-04-22T09:05:35.574Z,59.2
2018-04-22T09:06:25.644Z,59.3
2018-04-22T09:07:15.416Z,59.3
2018-04-22T09:08:05.771Z,59.3
2018-04-22T09:08:55.819Z,59.4
2018-04-22T09:09:45.927Z,59.5
2018-04-22T09:10:35.956Z,59.6
2018-04-22T09:11:26.024Z,59.8
2018-04-22T09:12:16.093Z,59.9
2018-04-22T09:13:06.164Z,60.1
2018-04-22T09:13:56.226Z,60.3
2018-04-22T09:14:46.005Z,60.4
2018-04-22T09:15:36.342Z,60.5
2018-04-22T09:16:26.564Z,60.5
2018-04-22T09:17:16.469Z,60.4
2018-04-22T09:18:06.569Z,60.4
2018-04-22T09:18:56.614Z,60.3
2018-04-22T09:19:46.667Z,60.4
2018-04-22T09:20:36.453Z,60.4
2018-04-22T09:21:26.803Z,60.6
2018-04-22T09:22:16.878Z,60.7
2018-04-22T09:23:06.661Z,60.8
2018-04-22T09:23:57.002Z,60.8
2018-04-22T09:24:47.059Z,60.9
2018-04-22T09:25:36.571Z,61.1
2018-04-22T09:26:27.189Z,61.1
2018-04-22T09:27:17.263Z,61.2
2018-04-22T09:28:07.051Z,61.3
2018-04-22T09:28:57.370Z,61.4
2018-04-22T09:29:46.883Z,61.5
2018-04-22T09:30:37.510Z,61.6
2018-04-22T09:31:27.587Z,61.8
2018-04-22T09:32:17.368Z,61.9
2018-04-22T09:33:07.832Z,62
2018-04-22T09:33:57.788Z,62.1
2018-04-22T09:34:47.835Z,62.2
2018-04-22T09:35:37.906Z,62.3
2018-04-22T09:36:27.984Z,62.2
2018-04-22T09:37:18.023Z,62.1
2018-04-22T09:38:08.100Z,62.1
2018-04-22T09:38:58.156Z,62.1
2018-04-22T09:39:48.218Z,62.2
2018-04-22T09:40:38.284Z,62.2
2018-04-22T09:41:28.401Z,62.2
2018-04-22T09:42:18.419Z,62.1
2018-04-22T09:43:08.728Z,62.1
2018-04-22T09:43:58.563Z,62.1
2018-04-22T09:44:48.609Z,62.2
2018-04-22T09:45:38.667Z,62.3
2018-04-22T09:46:28.733Z,62.3
2018-04-22T09:47:18.821Z,62.3
2018-04-22T09:48:08.903Z,62.4
2018-04-22T09:48:58.945Z,62.5
2018-04-22T09:49:49.100Z,62.6
2018-04-22T09:50:38.784Z,62.8
2018-04-22T09:51:29.143Z,62.9
2018-04-22T09:52:19.197Z,63
2018-04-22T09:53:09.295Z,63.1
2018-04-22T09:53:59.038Z,63.2
2018-04-22T09:54:49.140Z,63.2
2018-04-22T09:55:39.635Z,63.2
2018-04-22T09:56:29.524Z,63.2
2018-04-22T09:57:19.304Z,63.2
2018-04-22T09:58:09.663Z,63.1
2018-04-22T09:58:59.443Z,63.1
2018-04-22T09:59:49.783Z,63
2018-04-22T10:00:39.846Z,62.9
2018-04-22T10:01:29.342Z,62.9
2018-04-22T10:02:20.007Z,62.9
2018-04-22T10:03:10.043Z,62.9
2018-04-22T10:03:59.832Z,62.9
2018-04-22T10:04:50.249Z,63
2018-04-22T10:05:40.229Z,63.1
2018-04-22T10:06:30.373Z,63.1
2018-04-22T10:07:20.078Z,63.1
2018-04-22T10:08:10.427Z,63.1
2018-04-22T10:09:00.493Z,63.2
2018-04-22T10:09:50.562Z,63.3
2018-04-22T10:10:40.621Z,63.3
2018-04-22T10:11:30.434Z,63.4
2018-04-22T10:12:20.754Z,63.6
2018-04-22T10:13:10.824Z,63.7
2018-04-22T10:14:00.881Z,63.8
2018-04-22T10:14:50.679Z,63.9
2018-04-22T10:15:41.021Z,64.1
2018-04-22T10:16:30.945Z,64.1
2018-04-22T10:17:21.145Z,64.2
2018-04-22T10:18:10.955Z,64.2
2018-04-22T10:19:01.014Z,64.3
2018-04-22T10:19:51.358Z,64.4
2018-04-22T10:20:41.417Z,64.6
2018-04-22T10:21:31.490Z,64.7
2018-04-22T10:22:21.541Z,64.8
2018-04-22T10:23:11.330Z,64.9
2018-04-22T10:24:01.377Z,64.9
2018-04-22T10:24:51.729Z,64.9
2018-04-22T10:25:41.514Z,64.9
2018-04-22T10:26:31.862Z,64.8
2018-04-22T10:27:21.939Z,64.7
2018-04-22T10:28:11.992Z,64.6
2018-04-22T10:29:01.494Z,64.5
2018-04-22T10:29:52.134Z,64.4
2018-04-22T10:30:42.183Z,64.4
2018-04-22T10:31:32.270Z,64.6
2018-04-22T10:32:22.332Z,64.7
2018-04-22T10:33:12.389Z,64.9
2018-04-22T10:34:02.455Z,65
2018-04-22T10:34:52.256Z,65.1
2018-04-22T10:35:42.578Z,65.2
2018-04-22T10:36:32.491Z,65.3
2018-04-22T10:37:22.453Z,65.3
2018-04-22T10:38:12.777Z,65.3
2018-04-22T10:39:02.843Z,65.3
2018-04-22T10:39:52.919Z,65.3
2018-04-22T10:40:42.969Z,65.3
2018-04-22T10:41:33.048Z,65.3
2018-04-22T10:42:23.096Z,65.3
2018-04-22T10:43:13.164Z,65.3
2018-04-22T10:44:03.250Z,65.3
2018-04-22T10:44:53.024Z,65.3
2018-04-22T10:45:43.090Z,65.3
2018-04-22T10:46:33.455Z,65.2
2018-04-22T10:47:23.218Z,65
2018-04-22T10:48:13.555Z,64.9
2018-04-22T10:49:03.632Z,64.7
2018-04-22T10:49:53.715Z,64.6
2018-04-22T10:50:43.761Z,64.6
2018-04-22T10:51:33.818Z,64.5
2018-04-22T10:52:23.875Z,64.4
2018-04-22T10:53:13.951Z,64.3
2018-04-22T10:54:04.078Z,64
2018-04-22T10:54:54.083Z,63.8
2018-04-22T10:55:44.133Z,63.6
2018-04-22T10:56:34.212Z,63.4
2018-04-22T10:57:23.718Z,63.4
2018-04-22T10:58:14.342Z,63.5
2018-04-22T10:59:04.483Z,63.6
2018-04-22T10:59:54.660Z,63.7
2018-04-22T11:00:44.533Z,63.8
2018-04-22T11:01:34.594Z,63.8
2018-04-22T11:02:24.673Z,63.8
2018-04-22T11:03:14.441Z,63.8
2018-04-22T11:04:04.807Z,63.8
2018-04-22T11:04:54.922Z,63.8
2018-04-22T11:05:44.912Z,63.8
2018-04-22T11:06:35.009Z,63.8
2018-04-22T11:07:25.052Z,63.9
2018-04-22T11:08:15.116Z,63.9
2018-04-22T11:09:05.194Z,63.9
2018-04-22T11:09:54.961Z,64
2018-04-22T11:10:45.025Z,64.1
2018-04-22T11:11:35.107Z,64.1
2018-04-22T11:12:25.442Z,64.1
2018-04-22T11:13:15.224Z,64
2018-04-22T11:14:05.579Z,64
2018-04-22T11:14:55.648Z,64
2018-04-22T11:15:45.423Z,64.1
2018-04-22T11:16:35.789Z,64.1
2018-04-22T11:17:25.836Z,64.1
2018-04-22T11:18:15.899Z,64.3
2018-04-22T11:19:05.983Z,64.4
2018-04-22T11:19:56.035Z,64.4
2018-04-22T11:20:46.082Z,64.6